createdAt,value
2023-03-12T00:00:17.538Z,4.25
2023-03-12T00:02:44.329Z,4.32
2023-03-12T00:05:11.570Z,4.36
2023-03-12T00:07:39.543Z,4.33
2023-03-12T00:10:07.997Z,4.37
2023-03-12T00:12:34.990Z,4.40
2023-03-12T00:15:02.032Z,4.38
2023-03-12T00:17:30.384Z,4.42
2023-03-12T00:19:57.497Z,4.38
2023-03-12T00:22:25.928Z,4.44
2023-03-12T00:24:55.127Z,4.38
2023-03-12T00:27:22.905Z,4.46
2023-03-12T00:29:50.285Z,4.47
2023-03-12T00:32:17.643Z,4.48
2023-03-12T00:34:44.465Z,4.50
2023-03-12T00:37:11.306Z,4.52
2023-03-12T00:39:38.079Z,4.57
2023-03-12T00:42:05.225Z,4.58
2023-03-12T00:44:32.137Z,4.49
2023-03-12T00:46:59.038Z,4.43
2023-03-12T00:49:25.965Z,4.43
2023-03-12T00:51:54.246Z,4.42
2023-03-12T00:54:21.850Z,4.41
2023-03-12T00:56:49.173Z,4.44
2023-03-12T00:59:16.689Z,4.43
2023-03-12T01:01:44.120Z,4.44
2023-03-12T01:04:12.311Z,4.47
2023-03-12T01:06:39.183Z,4.52
2023-03-12T01:09:09.214Z,4.55
2023-03-12T01:11:37.693Z,4.56
2023-03-12T01:14:06.939Z,4.60
2023-03-12T01:16:34.250Z,4.60
2023-03-12T01:19:02.373Z,4.66
2023-03-12T01:21:30.622Z,4.67
2023-03-12T01:23:57.517Z,4.63
2023-03-12T01:26:24.833Z,4.66
2023-03-12T01:28:51.638Z,4.65
2023-03-12T01:31:19.455Z,4.64
2023-03-12T01:33:51.909Z,4.60
2023-03-12T01:36:26.736Z,4.57
2023-03-12T01:39:00.113Z,4.47
2023-03-12T01:41:32.946Z,4.54
2023-03-12T01:44:03.870Z,4.55
2023-03-12T01:46:39.728Z,4.57
2023-03-12T01:49:10.852Z,4.62
2023-03-12T01:51:51.968Z,4.61
2023-03-12T01:54:46.868Z,4.62
2023-03-12T01:57:29.074Z,4.58
2023-03-12T02:00:14.274Z,4.56
2023-03-12T02:02:43.822Z,4.54
2023-03-12T02:05:38.575Z,4.48
2023-03-12T02:08:06.087Z,4.47
2023-03-12T02:10:32.915Z,4.41
2023-03-12T02:13:00.001Z,4.41
2023-03-12T02:15:27.939Z,4.43
2023-03-12T02:17:54.974Z,4.43
2023-03-12T02:20:47.455Z,4.42
2023-03-12T02:23:33.738Z,4.48
2023-03-12T02:26:02.577Z,4.59
2023-03-12T02:28:30.175Z,4.63
2023-03-12T02:31:03.744Z,4.69
2023-03-12T02:33:30.754Z,4.77
2023-03-12T02:35:57.856Z,4.83
2023-03-12T02:38:36.765Z,4.89
2023-03-12T02:41:20.739Z,5.00
2023-03-12T02:44:13.243Z,5.02
2023-03-12T02:46:44.515Z,5.10
2023-03-12T02:49:13.460Z,5.17
2023-03-12T02:51:42.729Z,5.22
2023-03-12T02:54:10.671Z,5.26
2023-03-12T02:56:38.179Z,5.27
2023-03-12T02:59:06.457Z,5.32
2023-03-12T03:01:36.470Z,5.35
2023-03-12T03:04:05.954Z,5.35
2023-03-12T03:06:32.902Z,5.33
2023-03-12T03:08:59.909Z,5.37
2023-03-12T03:11:26.902Z,5.32
2023-03-12T03:13:55.230Z,5.27
2023-03-12T03:16:22.928Z,5.26
2023-03-12T03:18:50.107Z,5.26
2023-03-12T03:21:18.039Z,5.25
2023-03-12T03:23:47.306Z,5.23
2023-03-12T03:26:16.258Z,5.24
2023-03-12T03:28:45.825Z,5.28
2023-03-12T03:31:13.026Z,5.32
2023-03-12T03:33:40.876Z,5.35
2023-03-12T03:36:09.602Z,5.38
2023-03-12T03:38:36.869Z,5.45
2023-03-12T03:41:04.230Z,5.51
2023-03-12T03:43:31.089Z,5.56
2023-03-12T03:46:05.065Z,5.63
2023-03-12T03:48:32.522Z,5.66
2023-03-12T03:51:05.152Z,5.72
2023-03-12T03:53:32.576Z,5.74
2023-03-12T03:55:59.401Z,5.76
2023-03-12T03:58:26.305Z,5.75
2023-03-12T04:00:54.724Z,5.78
2023-03-12T04:03:21.507Z,5.81
2023-03-12T04:05:58.845Z,5.80
2023-03-12T04:08:26.146Z,5.80
2023-03-12T04:10:53.601Z,5.82
2023-03-12T04:13:20.890Z,5.85
2023-03-12T04:15:53.791Z,5.88
2023-03-12T04:18:20.827Z,5.88
2023-03-12T04:20:47.966Z,5.88
2023-03-12T04:23:14.846Z,5.91
2023-03-12T04:25:41.652Z,5.90
2023-03-12T04:28:08.520Z,5.93
2023-03-12T04:30:38.374Z,5.95
2023-03-12T04:33:08.394Z,6.04
2023-03-12T04:35:35.290Z,6.06
2023-03-12T04:38:03.469Z,6.11
2023-03-12T04:40:30.757Z,6.15
2023-03-12T04:42:57.552Z,6.20
2023-03-12T04:45:24.377Z,6.21
2023-03-12T04:47:51.206Z,6.27
2023-03-12T04:50:18.366Z,6.27
2023-03-12T04:52:45.335Z,6.30
2023-03-12T04:55:12.269Z,6.36
2023-03-12T04:57:39.061Z,6.37
2023-03-12T05:00:13.638Z,6.38
2023-03-12T05:02:41.922Z,6.43
2023-03-12T05:05:11.145Z,6.47
2023-03-12T05:07:37.901Z,6.46
2023-03-12T05:10:05.301Z,6.48
2023-03-12T05:12:32.071Z,6.49
2023-03-12T05:14:58.876Z,6.49
2023-03-12T05:17:26.006Z,6.48
2023-03-12T05:19:52.888Z,6.47
2023-03-12T05:22:19.743Z,6.48
2023-03-12T05:24:46.544Z,6.39
2023-03-12T05:27:13.448Z,6.40
2023-03-12T05:29:40.242Z,6.40
2023-03-12T05:32:07.786Z,6.38
2023-03-12T05:34:35.385Z,6.38
2023-03-12T05:37:02.202Z,6.39
2023-03-12T05:39:29.016Z,6.36
2023-03-12T05:41:57.362Z,6.38
2023-03-12T05:44:25.324Z,6.36
2023-03-12T05:46:52.804Z,6.37
2023-03-12T05:49:21.510Z,6.36
2023-03-12T05:51:50.172Z,6.35
2023-03-12T05:54:18.322Z,6.33
2023-03-12T05:56:45.217Z,6.32
2023-03-12T05:59:12.145Z,6.32
2023-03-12T06:01:39.927Z,6.30
2023-03-12T06:04:06.942Z,6.29
2023-03-12T06:06:36.180Z,6.31
2023-03-12T06:09:05.192Z,6.28
2023-03-12T06:11:34.153Z,6.30
2023-03-12T06:14:01.348Z,6.29
2023-03-12T06:16:29.734Z,6.31
2023-03-12T06:18:59.870Z,6.30
2023-03-12T06:21:31.178Z,6.27
2023-03-12T06:24:02.158Z,6.25
2023-03-12T06:26:29.212Z,6.22
2023-03-12T06:28:56.505Z,6.20
2023-03-12T06:31:24.412Z,6.14
2023-03-12T06:33:52.100Z,6.20
2023-03-12T06:36:18.894Z,6.18
2023-03-12T06:38:45.694Z,6.11
2023-03-12T06:41:16.487Z,6.13
2023-03-12T06:43:44.482Z,6.13
2023-03-12T06:46:18.562Z,6.11
2023-03-12T06:48:46.730Z,6.08
2023-03-12T06:51:16.603Z,6.03
2023-03-12T06:53:45.279Z,5.98
2023-03-12T06:56:13.079Z,5.94
2023-03-12T06:58:40.352Z,5.91
2023-03-12T07:01:08.164Z,5.87
2023-03-12T07:03:35.194Z,5.81
2023-03-12T07:06:02.301Z,5.83
2023-03-12T07:08:32.503Z,5.84
2023-03-12T07:11:03.720Z,5.83
2023-03-12T07:13:31.016Z,5.79
2023-03-12T07:15:58.195Z,5.81
2023-03-12T07:18:25.113Z,5.79
2023-03-12T07:20:52.674Z,5.81
2023-03-12T07:23:20.093Z,5.84
2023-03-12T07:25:48.095Z,5.90
2023-03-12T07:28:16.635Z,5.99
2023-03-12T07:30:43.521Z,6.11
2023-03-12T07:33:12.981Z,6.23
2023-03-12T07:35:40.545Z,6.37
2023-03-12T07:38:08.752Z,6.54
2023-03-12T07:40:36.411Z,6.71
2023-03-12T07:43:07.049Z,6.93
2023-03-12T07:45:33.904Z,7.12
2023-03-12T07:48:00.694Z,7.41
2023-03-12T07:50:27.603Z,7.59
2023-03-12T07:52:54.484Z,7.74
2023-03-12T07:55:21.418Z,7.98
2023-03-12T07:57:49.189Z,8.31
2023-03-12T08:00:17.557Z,8.44
2023-03-12T08:02:45.472Z,8.57
2023-03-12T08:05:12.603Z,8.79
2023-03-12T08:07:39.445Z,8.91
2023-03-12T08:10:10.614Z,8.99
2023-03-12T08:12:37.796Z,9.21
2023-03-12T08:15:08.459Z,9.40
2023-03-12T08:17:35.797Z,9.47
2023-03-12T08:20:02.948Z,9.66
2023-03-12T08:22:29.765Z,9.65
2023-03-12T08:24:56.580Z,9.75
2023-03-12T08:27:23.471Z,9.78
2023-03-12T08:29:50.362Z,9.88
2023-03-12T08:32:17.518Z,10.04
2023-03-12T08:34:44.339Z,10.14
2023-03-12T08:37:11.182Z,10.22
2023-03-12T08:39:38.040Z,10.26
2023-03-12T08:42:05.771Z,10.22
2023-03-12T08:44:32.544Z,10.25
2023-03-12T08:46:59.713Z,10.23
2023-03-12T08:49:26.721Z,10.30
2023-03-12T08:51:53.745Z,10.37
2023-03-12T08:54:21.749Z,10.42
2023-03-12T08:56:52.586Z,10.46
2023-03-12T08:59:20.845Z,10.45
2023-03-12T09:01:48.151Z,10.47
2023-03-12T09:04:15.387Z,10.40
2023-03-12T09:06:42.936Z,10.32
2023-03-12T09:09:09.841Z,10.30
2023-03-12T09:11:39.852Z,10.32
2023-03-12T09:14:46.169Z,10.18
2023-03-12T09:16:54.873Z,10.20
2023-03-12T09:19:21.725Z,10.20
2023-03-12T09:21:48.977Z,10.14
2023-03-12T09:24:15.810Z,10.14
2023-03-12T09:26:42.637Z,10.21
2023-03-12T09:29:09.558Z,10.21
2023-03-12T09:31:36.683Z,10.18
2023-03-12T09:34:04.867Z,10.21
2023-03-12T09:36:32.481Z,10.16
2023-03-12T09:39:00.281Z,10.10
2023-03-12T09:41:31.934Z,10.10
2023-03-12T09:44:05.038Z,10.09
2023-03-12T09:46:45.657Z,10.11
2023-03-12T09:49:23.769Z,10.10
2023-03-12T09:51:56.168Z,10.14
2023-03-12T09:54:58.809Z,10.16
2023-03-12T09:57:30.020Z,10.12
2023-03-12T09:59:57.875Z,10.27
2023-03-12T10:02:46.213Z,10.41
2023-03-12T10:05:44.454Z,10.58
2023-03-12T10:08:36.298Z,10.66
2023-03-12T10:11:21.041Z,10.76
2023-03-12T10:14:24.421Z,10.74
2023-03-12T10:17:29.063Z,10.67
2023-03-12T10:20:26.445Z,10.71
2023-03-12T10:23:11.469Z,10.76
2023-03-12T10:25:46.956Z,10.77
2023-03-12T10:28:19.772Z,10.80
2023-03-12T10:30:54.678Z,10.82
2023-03-12T10:33:28.468Z,10.93
2023-03-12T10:35:55.837Z,11.00
2023-03-12T10:38:30.395Z,11.10
2023-03-12T10:40:57.198Z,11.11
2023-03-12T10:43:24.341Z,11.21
2023-03-12T10:46:11.487Z,11.20
2023-03-12T10:48:38.545Z,11.23
2023-03-12T10:51:09.697Z,11.24
2023-03-12T10:53:48.003Z,11.26
2023-03-12T10:56:19.265Z,11.24
2023-03-12T10:58:52.406Z,11.36
2023-03-12T11:01:22.623Z,11.48
2023-03-12T11:03:51.548Z,11.58
2023-03-12T11:06:29.038Z,11.64
2023-03-12T11:09:16.351Z,11.65
2023-03-12T11:11:47.704Z,11.68
2023-03-12T11:14:23.522Z,11.79
2023-03-12T11:16:52.181Z,11.86
2023-03-12T11:19:31.443Z,11.98
2023-03-12T11:22:16.108Z,12.03
2023-03-12T11:24:58.938Z,12.04
2023-03-12T11:27:57.229Z,11.97
2023-03-12T11:30:32.750Z,12.12
2023-03-12T11:33:02.289Z,12.22
2023-03-12T11:36:15.539Z,12.33
2023-03-12T11:39:00.994Z,12.25
2023-03-12T11:41:27.644Z,12.10
2023-03-12T11:44:05.114Z,12.11
2023-03-12T11:46:55.768Z,12.13
2023-03-12T11:49:40.636Z,12.19
2023-03-12T11:52:31.447Z,12.32
2023-03-12T11:55:21.122Z,12.48
2023-03-12T11:58:06.119Z,12.54
2023-03-12T12:00:49.588Z,12.57
2023-03-12T12:03:35.595Z,12.59
2023-03-12T12:06:48.144Z,12.59
2023-03-12T12:09:43.882Z,12.55
2023-03-12T12:12:17.165Z,12.57
2023-03-12T12:15:26.351Z,12.60
2023-03-12T12:17:57.880Z,12.63
2023-03-12T12:20:49.080Z,12.67
2023-03-12T12:23:17.609Z,12.76
2023-03-12T12:26:13.289Z,12.87
2023-03-12T12:29:17.189Z,12.96
2023-03-12T12:32:04.510Z,12.77
2023-03-12T12:34:52.218Z,12.86
2023-03-12T12:37:41.050Z,12.95
2023-03-12T12:40:27.823Z,12.93
2023-03-12T12:43:29.189Z,12.81
2023-03-12T12:46:02.778Z,12.78
2023-03-12T12:48:40.639Z,12.80
2023-03-12T12:51:10.763Z,12.80
2023-03-12T12:54:03.226Z,12.84
2023-03-12T12:56:53.575Z,12.82
2023-03-12T12:59:34.425Z,12.87
2023-03-12T13:02:03.953Z,12.87
2023-03-12T13:04:38.534Z,12.90
2023-03-12T13:07:14.429Z,12.90
2023-03-12T13:09:48.055Z,12.96
2023-03-12T13:12:57.239Z,12.95
2023-03-12T13:15:29.739Z,12.97
2023-03-12T13:17:56.524Z,13.03
2023-03-12T13:20:33.138Z,13.05
2023-03-12T13:23:32.028Z,12.94
2023-03-12T13:26:08.493Z,12.95
2023-03-12T13:29:13.096Z,12.93
2023-03-12T13:31:42.630Z,12.86
2023-03-12T13:34:18.591Z,12.84
2023-03-12T13:36:52.200Z,12.84
2023-03-12T13:39:34.228Z,12.88
2023-03-12T13:42:22.650Z,12.76
2023-03-12T13:44:51.081Z,12.80
2023-03-12T13:47:36.654Z,12.77
2023-03-12T13:50:14.551Z,12.82
2023-03-12T13:52:48.557Z,12.77
2023-03-12T13:55:34.325Z,12.67
2023-03-12T13:58:23.595Z,12.62
2023-03-12T14:00:55.591Z,12.59
2023-03-12T14:03:29.819Z,12.55
2023-03-12T14:06:05.844Z,12.53
2023-03-12T14:08:47.431Z,12.53
2023-03-12T14:11:38.431Z,12.45
2023-03-12T14:14:26.565Z,12.40
2023-03-12T14:16:58.414Z,12.40
2023-03-12T14:19:31.795Z,12.34
2023-03-12T14:22:04.811Z,12.33
2023-03-12T14:24:36.532Z,12.31
2023-03-12T14:27:07.407Z,12.27
2023-03-12T14:29:43.357Z,12.22
2023-03-12T14:32:20.289Z,12.22
2023-03-12T14:34:54.553Z,12.17
2023-03-12T14:37:40.829Z,12.22
2023-03-12T14:40:25.012Z,12.12
2023-03-12T14:42:52.092Z,12.06
2023-03-12T14:45:23.686Z,12.09
2023-03-12T14:47:57.777Z,12.06
2023-03-12T14:50:31.100Z,12.05
2023-03-12T14:53:25.350Z,12.01
2023-03-12T14:56:13.166Z,12.05
2023-03-12T14:58:49.463Z,12.02
2023-03-12T15:01:30.345Z,12.01
2023-03-12T15:04:03.836Z,12.02
2023-03-12T15:06:38.771Z,12.03
2023-03-12T15:09:07.881Z,12.00
2023-03-12T15:11:37.426Z,12.04
2023-03-12T15:14:14.940Z,11.96
2023-03-12T15:16:44.332Z,11.90
2023-03-12T15:19:20.978Z,11.93
2023-03-12T15:21:48.167Z,11.89
2023-03-12T15:24:15.341Z,11.83
2023-03-12T15:26:43.972Z,11.80
2023-03-12T15:29:29.102Z,11.74
2023-03-12T15:31:58.707Z,11.63
2023-03-12T15:34:38.172Z,11.55
2023-03-12T15:37:20.353Z,11.60
2023-03-12T15:39:53.045Z,11.62
2023-03-12T15:42:24.990Z,11.54
2023-03-12T15:44:59.098Z,11.57
2023-03-12T15:47:30.009Z,11.55
2023-03-12T15:50:02.340Z,11.52
2023-03-12T15:52:33.364Z,11.54
2023-03-12T15:55:12.292Z,11.49
2023-03-12T15:57:52.082Z,11.51
2023-03-12T16:00:43.304Z,11.51
2023-03-12T16:03:19.712Z,11.56
2023-03-12T16:05:49.314Z,11.55
2023-03-12T16:08:21.784Z,11.51
2023-03-12T16:10:50.708Z,11.60
2023-03-12T16:13:21.302Z,11.57
2023-03-12T16:15:49.086Z,11.55
2023-03-12T16:18:19.549Z,11.55
2023-03-12T16:20:47.206Z,11.47
2023-03-12T16:23:15.405Z,11.45
2023-03-12T16:25:52.361Z,11.42
2023-03-12T16:28:21.265Z,11.45
2023-03-12T16:30:48.974Z,11.34
2023-03-12T16:33:21.007Z,11.37
2023-03-12T16:35:48.477Z,11.35
2023-03-12T16:38:15.575Z,11.31
2023-03-12T16:40:51.128Z,11.33
2023-03-12T16:43:28.216Z,11.30
2023-03-12T16:45:56.887Z,11.35
2023-03-12T16:48:25.005Z,11.36
2023-03-12T16:50:55.892Z,11.31
2023-03-12T16:53:23.856Z,11.30
2023-03-12T16:55:58.748Z,11.32
2023-03-12T16:58:27.155Z,11.33
2023-03-12T17:00:55.904Z,11.27
2023-03-12T17:03:22.643Z,11.26
2023-03-12T17:05:49.625Z,11.28
2023-03-12T17:08:16.395Z,11.21
2023-03-12T17:10:43.664Z,11.22
2023-03-12T17:13:28.896Z,11.23
2023-03-12T17:15:57.073Z,11.23
2023-03-12T17:18:24.021Z,11.20
2023-03-12T17:20:52.080Z,11.19
2023-03-12T17:23:19.917Z,11.20
2023-03-12T17:25:46.941Z,11.19
2023-03-12T17:28:15.601Z,11.18
2023-03-12T17:30:43.483Z,11.17
2023-03-12T17:33:17.872Z,11.16
2023-03-12T17:35:45.928Z,11.16
2023-03-12T17:38:13.524Z,11.09
2023-03-12T17:40:44.474Z,11.02
2023-03-12T17:43:12.525Z,11.05
2023-03-12T17:45:40.005Z,11.00
2023-03-12T17:48:07.232Z,11.02
2023-03-12T17:50:34.706Z,10.98
2023-03-12T17:53:01.526Z,10.98
2023-03-12T17:55:28.372Z,10.92
2023-03-12T17:57:55.417Z,10.95
2023-03-12T18:00:23.223Z,10.94
2023-03-12T18:02:50.925Z,10.89
2023-03-12T18:05:17.903Z,10.86
2023-03-12T18:07:48.438Z,10.86
2023-03-12T18:10:15.790Z,10.84
2023-03-12T18:12:42.925Z,10.77
2023-03-12T18:15:13.343Z,10.79
2023-03-12T18:17:41.716Z,10.75
2023-03-12T18:20:10.046Z,10.72
2023-03-12T18:22:39.213Z,10.73
2023-03-12T18:25:07.923Z,10.54
2023-03-12T18:27:35.004Z,10.64
2023-03-12T18:30:01.847Z,10.62
2023-03-12T18:32:28.818Z,10.58
2023-03-12T18:34:56.212Z,10.49
2023-03-12T18:37:23.142Z,10.49
2023-03-12T18:39:49.937Z,10.53
2023-03-12T18:42:16.730Z,10.52
2023-03-12T18:44:44.120Z,10.47
2023-03-12T18:47:10.968Z,10.45
2023-03-12T18:49:37.892Z,10.45
2023-03-12T18:52:05.016Z,10.43
2023-03-12T18:54:33.757Z,10.43
2023-03-12T18:57:01.268Z,10.40
2023-03-12T18:59:29.894Z,10.43
2023-03-12T19:01:58.347Z,10.37
2023-03-12T19:04:26.019Z,10.37
2023-03-12T19:06:53.035Z,10.30
2023-03-12T19:09:20.096Z,10.29
2023-03-12T19:11:48.320Z,10.26
2023-03-12T19:14:15.663Z,10.27
2023-03-12T19:16:42.521Z,10.27
2023-03-12T19:19:09.627Z,10.25
2023-03-12T19:21:36.400Z,10.20
2023-03-12T19:24:03.246Z,10.24
2023-03-12T19:26:30.157Z,10.21
2023-03-12T19:28:56.916Z,10.22
2023-03-12T19:31:24.017Z,10.20
2023-03-12T19:33:51.661Z,10.19
2023-03-12T19:36:18.481Z,10.23
2023-03-12T19:38:45.284Z,10.25
2023-03-12T19:41:12.175Z,10.19
2023-03-12T19:43:40.184Z,10.14
2023-03-12T19:46:07.236Z,10.19
2023-03-12T19:48:34.612Z,10.15
2023-03-12T19:51:06.851Z,10.12
2023-03-12T19:53:33.649Z,10.16
2023-03-12T19:56:00.637Z,10.18
2023-03-12T19:58:28.921Z,10.17
2023-03-12T20:00:59.666Z,10.12
2023-03-12T20:03:28.231Z,10.19
2023-03-12T20:05:55.138Z,10.22
2023-03-12T20:08:22.708Z,10.22
2023-03-12T20:10:49.962Z,10.24
2023-03-12T20:13:17.920Z,10.26
2023-03-12T20:15:47.023Z,10.26
2023-03-12T20:18:15.693Z,10.23
2023-03-12T20:20:43.117Z,10.24
2023-03-12T20:23:09.973Z,10.19
2023-03-12T20:25:43.818Z,10.24
2023-03-12T20:28:11.122Z,10.20
2023-03-12T20:30:41.440Z,10.26
2023-03-12T20:33:09.093Z,10.21
2023-03-12T20:35:36.711Z,10.27
2023-03-12T20:38:04.516Z,10.25
2023-03-12T20:40:31.720Z,10.27
2023-03-12T20:42:58.540Z,10.22
2023-03-12T20:45:25.646Z,10.24
2023-03-12T20:47:53.719Z,10.19
2023-03-12T20:50:21.153Z,10.22
2023-03-12T20:52:48.417Z,10.27
2023-03-12T20:55:15.256Z,10.23
2023-03-12T20:57:42.142Z,10.24
2023-03-12T21:00:09.873Z,10.28
2023-03-12T21:02:36.806Z,10.28
2023-03-12T21:05:03.925Z,10.32
2023-03-12T21:07:30.692Z,10.32
2023-03-12T21:09:57.880Z,10.31
2023-03-12T21:12:24.766Z,10.31
2023-03-12T21:14:51.530Z,10.34
2023-03-12T21:17:18.312Z,10.30
2023-03-12T21:19:46.659Z,10.26
2023-03-12T21:22:13.570Z,10.30
2023-03-12T21:24:40.862Z,10.33
2023-03-12T21:27:11.525Z,10.33
2023-03-12T21:29:38.461Z,10.36
2023-03-12T21:32:05.619Z,10.31
2023-03-12T21:34:32.769Z,10.34
2023-03-12T21:36:59.604Z,10.36
2023-03-12T21:39:27.339Z,10.36
2023-03-12T21:41:54.206Z,10.33
2023-03-12T21:44:21.028Z,10.36
2023-03-12T21:46:47.860Z,10.41
2023-03-12T21:49:18.119Z,10.38
2023-03-12T21:51:45.707Z,10.44
2023-03-12T21:54:12.777Z,10.43
2023-03-12T21:56:41.879Z,10.40
2023-03-12T21:59:08.722Z,10.46
2023-03-12T22:01:35.568Z,10.43
2023-03-12T22:04:03.577Z,10.48
2023-03-12T22:06:30.457Z,10.46
2023-03-12T22:08:57.298Z,10.43
2023-03-12T22:11:24.511Z,10.42
2023-03-12T22:13:51.265Z,10.38
2023-03-12T22:16:18.272Z,10.46
2023-03-12T22:18:46.733Z,10.50
2023-03-12T22:21:20.333Z,10.50
2023-03-12T22:23:51.163Z,10.51
2023-03-12T22:26:22.344Z,10.47
2023-03-12T22:28:59.707Z,10.52
2023-03-12T22:31:29.189Z,10.54
2023-03-12T22:33:57.369Z,10.59
2023-03-12T22:36:24.480Z,10.56
2023-03-12T22:38:52.092Z,10.54
2023-03-12T22:41:27.335Z,10.61
2023-03-12T22:43:56.765Z,10.60
2023-03-12T22:46:26.030Z,10.57
2023-03-12T22:48:56.526Z,10.58
2023-03-12T22:51:25.119Z,10.63
2023-03-12T22:53:53.412Z,10.65
2023-03-12T22:56:20.925Z,10.64
2023-03-12T22:58:48.402Z,10.64
2023-03-12T23:01:18.781Z,10.64
2023-03-12T23:03:46.807Z,10.56
2023-03-12T23:06:26.365Z,10.66
2023-03-12T23:08:55.205Z,10.66
2023-03-12T23:11:25.476Z,10.63
2023-03-12T23:13:53.647Z,10.68
2023-03-12T23:16:24.624Z,10.67
2023-03-12T23:18:52.360Z,10.67
2023-03-12T23:21:22.385Z,10.67
2023-03-12T23:23:50.722Z,10.69
2023-03-12T23:26:21.994Z,10.67
2023-03-12T23:28:51.275Z,10.71
2023-03-12T23:31:18.393Z,10.71
2023-03-12T23:33:45.296Z,10.72
2023-03-12T23:36:19.224Z,10.76
2023-03-12T23:38:48.110Z,10.75
2023-03-12T23:41:17.269Z,10.78
2023-03-12T23:43:45.084Z,10.76
2023-03-12T23:46:13.616Z,10.78
2023-03-12T23:48:41.408Z,10.78
2023-03-12T23:51:23.397Z,10.77
2023-03-12T23:53:54.956Z,10.81
2023-03-12T23:56:27.108Z,10.79
2023-03-12T23:58:54.572Z,10.82
